Time;durP1;ratioP1;P1;durP2;ratioP2;P2;SDS_P1;SDS_P2;PMS_P1;PMS_P2;Temp;Humidity;BMP_temperature;BMP_pressure;BME280_temperature;BME280_humidity;BME280_pressure;Samples;Min_cycle;Max_cycle;Signal;HPM_P1;HPM_P2
2021/05/11 00:01:14;;;;;;;13.95;5.88;;;13.60;95.80;;;;;;4948697;29;20570;-69
2021/05/11 00:03:41;;;;;;;12.20;5.78;;;13.60;95.80;;;;;;4948032;28;20063;-68
2021/05/11 00:06:07;;;;;;;8.95;5.75;;;13.60;95.90;;;;;;4947837;28;20074;-69
2021/05/11 00:08:32;;;;;;;11.18;5.75;;;13.60;96.00;;;;;;4948637;28;20476;-68
2021/05/11 00:10:58;;;;;;;9.95;5.88;;;13.60;96.10;;;;;;4949137;29;20118;-68
2021/05/11 00:13:24;;;;;;;8.15;5.75;;;13.50;96.00;;;;;;4948927;29;20035;-68
2021/05/11 00:15:50;;;;;;;8.73;5.88;;;13.60;96.20;;;;;;4949211;28;20039;-68
2021/05/11 00:18:15;;;;;;;10.02;5.95;;;13.50;96.10;;;;;;4949409;29;20119;-68
2021/05/11 00:20:41;;;;;;;10.38;5.68;;;13.50;96.20;;;;;;4948980;28;20031;-69
2021/05/11 00:23:06;;;;;;;10.93;6.25;;;13.50;96.20;;;;;;4948856;28;20046;-68
2021/05/11 00:25:32;;;;;;;12.75;6.13;;;13.50;96.20;;;;;;4946826;28;20054;-68
2021/05/11 00:27:58;;;;;;;10.65;5.97;;;13.50;96.20;;;;;;4949081;29;20067;-69
2021/05/11 00:30:23;;;;;;;8.82;5.63;;;13.40;96.20;;;;;;4949298;29;20035;-68
2021/05/11 00:32:49;;;;;;;12.23;6.60;;;13.40;96.20;;;;;;4947713;29;20043;-68
2021/05/11 00:35:15;;;;;;;9.45;6.03;;;13.40;96.20;;;;;;4948694;28;20440;-68
2021/05/11 00:37:41;;;;;;;11.98;7.05;;;13.40;96.30;;;;;;4948199;29;20046;-68
2021/05/11 00:40:08;;;;;;;13.90;6.97;;;13.40;96.30;;;;;;4949106;29;20055;-69
2021/05/11 00:42:34;;;;;;;13.27;7.00;;;13.40;96.40;;;;;;4948679;29;20443;-69
2021/05/11 00:45:01;;;;;;;11.95;6.85;;;13.40;96.40;;;;;;4948786;28;20588;-69
2021/05/11 00:47:26;;;;;;;12.40;6.38;;;13.30;96.40;;;;;;4948767;29;20514;-68
2021/05/11 00:49:52;;;;;;;12.30;6.40;;;13.30;96.40;;;;;;4948307;28;20035;-68
2021/05/11 00:52:18;;;;;;;11.15;6.38;;;13.30;96.40;;;;;;4948679;29;20381;-68
2021/05/11 00:54:45;;;;;;;12.52;6.85;;;13.30;96.50;;;;;;4948575;28;20034;-68
2021/05/11 00:57:11;;;;;;;11.35;6.80;;;13.30;96.60;;;;;;4946737;29;20469;-68
2021/05/11 00:59:37;;;;;;;13.50;7.38;;;13.30;96.60;;;;;;4947559;28;20118;-68
2021/05/11 01:02:06;;;;;;;11.77;6.88;;;13.30;96.70;;;;;;4944014;29;20028;-68
2021/05/11 01:04:32;;;;;;;15.93;6.75;;;13.30;96.70;;;;;;4946640;28;20464;-69
2021/05/11 01:06:58;;;;;;;13.77;6.82;;;13.30;96.70;;;;;;4948833;28;20023;-68
2021/05/11 01:09:25;;;;;;;11.60;7.30;;;13.20;96.70;;;;;;4949724;28;20034;-68
2021/05/11 01:11:51;;;;;;;13.40;6.25;;;13.20;96.80;;;;;;4948506;29;20031;-69
2021/05/11 01:14:17;;;;;;;10.38;6.43;;;13.20;96.80;;;;;;4950060;29;20034;-69
2021/05/11 01:16:46;;;;;;;8.57;6.10;;;13.20;96.80;;;;;;4948316;28;20126;-69
2021/05/11 01:19:19;;;;;;;11.23;7.30;;;13.10;96.90;;;;;;4948322;29;20039;-68
2021/05/11 01:22:01;;;;;;;13.77;6.35;;;13.10;96.90;;;;;;4944810;29;20031;-70
2021/05/11 01:24:51;;;;;;;10.77;6.70;;;13.10;96.90;;;;;;4946103;28;20026;-68
2021/05/11 01:43:56;;;;;;;8.32;5.28;;;13.10;97.00;;;;;;4947240;29;20086;-68
2021/05/11 01:51:36;;;;;;;8.07;5.07;;;13.10;97.00;;;;;;4949169;29;20031;-68
2021/05/11 01:54:29;;;;;;;7.40;5.40;;;13.00;97.00;;;;;;4931875;29;20235;-68
2021/05/11 02:17:45;;;;;;;8.93;3.78;;;12.80;96.90;;;;;;4946364;29;20115;-68
2021/05/11 02:24:49;;;;;;;6.50;2.90;;;12.50;96.70;;;;;;4946403;29;20118;-69
2021/05/11 02:27:14;;;;;;;6.05;2.90;;;12.40;96.70;;;;;;4946636;28;20098;-69
2021/05/11 02:29:40;;;;;;;5.35;2.67;;;12.50;96.80;;;;;;4947432;29;21302;-68
2021/05/11 02:32:06;;;;;;;8.45;2.65;;;12.40;96.80;;;;;;4949073;29;20420;-69
2021/05/11 02:34:31;;;;;;;4.20;2.58;;;12.40;96.80;;;;;;4931003;29;20492;-68
2021/05/11 02:36:57;;;;;;;6.28;2.67;;;12.40;96.80;;;;;;4948914;29;20041;-70
2021/05/11 02:39:22;;;;;;;4.70;2.15;;;12.40;96.70;;;;;;4948268;29;20023;-69
2021/05/11 02:41:48;;;;;;;4.72;2.53;;;12.40;96.70;;;;;;4946166;28;20039;-69
2021/05/11 02:44:17;;;;;;;6.65;2.80;;;12.30;96.70;;;;;;4946788;28;20110;-69
2021/05/11 02:46:42;;;;;;;5.70;2.78;;;12.40;96.80;;;;;;4947353;28;20077;-68
2021/05/11 02:49:08;;;;;;;5.85;2.47;;;12.30;96.60;;;;;;4948592;29;20480;-68
2021/05/11 02:51:34;;;;;;;5.60;2.45;;;12.30;96.80;;;;;;4943874;29;20126;-68
2021/05/11 02:54:00;;;;;;;3.55;2.53;;;12.30;96.80;;;;;;4932018;29;20130;-68
2021/05/11 02:56:25;;;;;;;5.15;3.00;;;12.30;96.70;;;;;;4944541;28;20082;-68
2021/05/11 02:58:51;;;;;;;5.20;2.33;;;12.30;96.80;;;;;;4948071;29;20556;-68
2021/05/11 03:01:17;;;;;;;5.40;2.33;;;12.20;96.80;;;;;;4945624;29;20399;-68
2021/05/11 03:03:43;;;;;;;3.92;2.45;;;12.30;96.90;;;;;;4947324;29;20118;-68
2021/05/11 03:06:10;;;;;;;6.75;2.78;;;12.20;96.80;;;;;;4947741;28;20247;-68
2021/05/11 03:08:35;;;;;;;6.57;2.63;;;12.20;96.90;;;;;;4948997;28;20396;-68
2021/05/11 03:11:01;;;;;;;5.97;2.42;;;12.20;96.90;;;;;;4944284;29;20020;-68
2021/05/11 03:13:27;;;;;;;6.18;2.70;;;12.20;97.00;;;;;;4949180;29;20019;-69
2021/05/11 03:15:52;;;;;;;5.85;2.50;;;12.20;97.00;;;;;;4947740;28;20031;-68
2021/05/11 03:18:18;;;;;;;5.00;2.83;;;12.10;97.10;;;;;;4947772;28;20507;-68
2021/05/11 03:20:43;;;;;;;7.70;3.20;;;12.10;97.10;;;;;;4945173;29;20075;-68
2021/05/11 03:23:09;;;;;;;3.88;2.58;;;12.10;97.20;;;;;;4947565;29;20027;-68
2021/05/11 03:25:35;;;;;;;5.05;2.97;;;12.10;97.30;;;;;;4947016;28;20031;-68
2021/05/11 03:28:00;;;;;;;4.47;2.83;;;12.10;97.20;;;;;;4948080;29;20020;-68
2021/05/11 03:30:26;;;;;;;5.60;2.60;;;12.10;97.20;;;;;;4947921;29;20034;-68
2021/05/11 03:32:52;;;;;;;4.90;2.92;;;12.20;97.20;;;;;;4947885;29;20039;-69
2021/05/11 03:35:17;;;;;;;5.63;2.90;;;12.20;97.30;;;;;;4947654;28;20039;-68
2021/05/11 03:37:43;;;;;;;9.73;3.22;;;12.10;97.20;;;;;;4948810;29;20407;-68
2021/05/11 03:40:09;;;;;;;6.75;3.65;;;12.20;97.30;;;;;;4949997;28;20042;-68
2021/05/11 03:42:40;;;;;;;8.15;4.03;;;12.20;97.30;;;;;;4950538;29;20503;-68
2021/05/11 03:45:08;;;;;;;7.88;3.72;;;12.20;97.30;;;;;;4935207;29;20043;-68
2021/05/11 03:47:44;;;;;;;8.95;3.92;;;12.20;97.30;;;;;;4950891;28;20061;-68
2021/05/11 03:50:14;;;;;;;6.50;3.95;;;12.20;97.30;;;;;;4951031;28;20027;-68
2021/05/11 03:52:40;;;;;;;7.70;4.05;;;12.20;97.40;;;;;;4951771;29;20028;-68
2021/05/11 03:55:06;;;;;;;7.72;3.80;;;12.20;97.40;;;;;;4951326;28;20031;-68
2021/05/11 03:57:32;;;;;;;6.38;3.50;;;12.20;97.40;;;;;;4951575;29;20125;-68
2021/05/11 03:59:58;;;;;;;5.95;3.50;;;12.10;97.40;;;;;;4951925;29;20504;-68
2021/05/11 04:02:24;;;;;;;8.23;3.40;;;12.20;97.50;;;;;;4949429;29;20031;-68
2021/05/11 04:04:49;;;;;;;7.35;3.55;;;12.20;97.50;;;;;;4948989;28;20035;-67
2021/05/11 04:07:15;;;;;;;6.47;3.88;;;12.20;97.50;;;;;;4949909;29;20027;-68
2021/05/11 04:09:48;;;;;;;6.47;3.88;;;12.20;97.40;;;;;;4951436;29;20543;-68
2021/05/11 04:17:42;;;;;;;8.07;3.47;;;12.00;97.40;;;;;;4943848;29;20559;-68
2021/05/11 04:20:09;;;;;;;7.65;3.90;;;12.10;97.40;;;;;;4950407;28;20031;-68
2021/05/11 04:22:34;;;;;;;7.95;4.10;;;12.10;97.50;;;;;;4949719;29;20322;-67
2021/05/11 04:25:00;;;;;;;10.65;4.10;;;12.10;97.50;;;;;;4951079;28;20291;-67
2021/05/11 04:27:25;;;;;;;6.60;3.58;;;12.10;97.70;;;;;;4939501;29;20042;-73
2021/05/11 04:29:55;;;;;;;9.45;3.72;;;12.10;97.50;;;;;;4946443;29;20035;-73
2021/05/11 04:32:20;;;;;;;6.45;3.80;;;12.10;97.60;;;;;;4951769;29;20477;-73
2021/05/11 04:34:46;;;;;;;8.38;4.05;;;12.10;97.60;;;;;;4951679;29;20129;-72
2021/05/11 04:37:12;;;;;;;12.10;4.10;;;12.10;97.60;;;;;;4952000;29;20121;-75
2021/05/11 04:39:37;;;;;;;9.48;4.13;;;12.10;97.60;;;;;;4952125;29;20027;-73
2021/05/11 04:42:03;;;;;;;6.25;2.95;;;12.20;97.60;;;;;;4949849;29;20043;-75
2021/05/11 04:44:32;;;;;;;6.45;3.13;;;12.10;97.60;;;;;;4942696;28;20038;-68
2021/05/11 04:47:07;;;;;;;7.43;3.38;;;12.10;97.60;;;;;;4939732;28;20035;-68
2021/05/11 04:49:33;;;;;;;6.63;3.55;;;12.10;97.60;;;;;;4937594;29;20027;-68
2021/05/11 04:51:59;;;;;;;10.50;3.50;;;12.10;97.60;;;;;;4949436;28;20403;-68
2021/05/11 04:54:24;;;;;;;7.13;3.40;;;12.10;97.70;;;;;;4950232;29;20063;-68
2021/05/11 04:56:50;;;;;;;6.72;3.35;;;12.20;97.70;;;;;;4944475;28;20114;-69
2021/05/11 04:59:15;;;;;;;5.10;3.38;;;12.10;97.60;;;;;;4947955;29;20101;-68
2021/05/11 05:01:44;;;;;;;7.00;3.70;;;12.10;97.70;;;;;;4947453;29;20561;-68
2021/05/11 05:04:11;;;;;;;5.80;3.40;;;12.10;97.60;;;;;;4950635;28;20031;-68
2021/05/11 05:06:37;;;;;;;7.00;3.35;;;12.10;97.70;;;;;;4948873;29;20515;-68
2021/05/11 05:09:02;;;;;;;5.88;3.03;;;12.10;97.70;;;;;;4950986;29;20024;-69
2021/05/11 05:11:28;;;;;;;5.60;3.25;;;12.10;97.70;;;;;;4939621;29;20373;-69
2021/05/11 05:13:53;;;;;;;5.80;3.28;;;12.10;97.70;;;;;;4945700;28;20039;-68
2021/05/11 05:16:19;;;;;;;8.80;3.55;;;12.10;97.70;;;;;;4946713;28;20035;-68
2021/05/11 05:18:45;;;;;;;5.55;3.40;;;12.10;97.70;;;;;;4944198;28;20094;-68
2021/05/11 05:21:12;;;;;;;7.45;3.65;;;12.10;97.70;;;;;;4947976;28;20139;-67
2021/05/11 05:23:48;;;;;;;5.93;2.97;;;12.10;97.60;;;;;;4947022;29;20058;-68
2021/05/11 05:26:21;;;;;;;7.25;3.30;;;12.00;97.60;;;;;;4944537;28;20440;-68
2021/05/11 05:28:46;;;;;;;6.78;3.22;;;12.00;97.60;;;;;;4947663;28;20039;-68
2021/05/11 05:31:12;;;;;;;5.75;3.70;;;12.00;97.60;;;;;;4927837;29;20051;-68
2021/05/11 05:33:39;;;;;;;7.57;3.97;;;12.00;97.60;;;;;;4940573;29;20050;-68
2021/05/11 05:36:07;;;;;;;9.63;4.47;;;12.00;97.50;;;;;;4945386;28;20488;-68
2021/05/11 05:38:33;;;;;;;9.85;4.65;;;12.00;97.50;;;;;;4950107;29;20046;-68
2021/05/11 05:41:06;;;;;;;6.78;4.57;;;12.00;97.60;;;;;;4947506;29;20118;-68
2021/05/11 05:43:31;;;;;;;13.73;4.70;;;12.00;97.50;;;;;;4952434;28;20042;-68
2021/05/11 05:45:57;;;;;;;7.30;4.25;;;12.00;97.50;;;;;;4945738;28;20031;-66
2021/05/11 05:48:23;;;;;;;9.02;4.35;;;12.00;97.50;;;;;;4947649;28;20373;-66
2021/05/11 05:50:54;;;;;;;8.43;3.97;;;12.00;97.50;;;;;;4938998;29;20059;-66
2021/05/11 05:53:26;;;;;;;;;;;12.00;97.40;;;;;;4928967;29;20043;-66
2021/05/11 05:55:52;;;;;;;8.52;3.13;;;11.90;97.30;;;;;;4943782;28;20291;-67
2021/05/11 05:58:18;;;;;;;8.00;3.30;;;11.80;97.20;;;;;;4948369;29;20038;-66
2021/05/11 06:00:44;;;;;;;6.88;3.60;;;11.80;97.20;;;;;;4936085;29;20201;-66
2021/05/11 06:05:54;;;;;;;8.20;3.97;;;11.80;97.30;;;;;;4944201;28;20057;-66
2021/05/11 06:08:19;;;;;;;8.85;4.40;;;11.70;97.20;;;;;;4937090;28;20043;-65
2021/05/11 06:10:45;;;;;;;8.20;4.75;;;11.80;97.20;;;;;;4946940;29;20139;-68
2021/05/11 06:13:15;;;;;;;10.05;5.70;;;11.80;97.20;;;;;;4930995;29;20031;-68
2021/05/11 06:18:25;;;;;;;5.38;3.58;;;11.80;97.20;;;;;;4939646;28;20073;-68
2021/05/11 06:20:51;;;;;;;8.57;3.00;;;11.70;97.20;;;;;;4947857;29;20055;-68
2021/05/11 06:23:18;;;;;;;6.75;2.67;;;11.60;97.10;;;;;;4946311;28;21192;-69
2021/05/11 06:25:45;;;;;;;6.38;2.60;;;11.50;96.80;;;;;;4946482;28;20028;-68
2021/05/11 06:28:14;;;;;;;8.20;2.17;;;11.50;96.90;;;;;;4947250;28;20039;-68
2021/05/11 06:30:40;;;;;;;9.63;2.70;;;11.50;96.90;;;;;;4947860;28;20237;-68
2021/05/11 06:33:07;;;;;;;6.60;2.15;;;11.50;96.70;;;;;;4946382;29;20039;-68
2021/05/11 06:35:34;;;;;;;7.45;2.53;;;11.30;96.60;;;;;;4945485;28;20042;-68
2021/05/11 06:38:01;;;;;;;5.85;2.60;;;11.30;96.50;;;;;;4939238;29;20042;-68
2021/05/11 06:40:28;;;;;;;8.45;2.13;;;11.40;96.70;;;;;;4947914;29;20106;-68
2021/05/11 06:42:55;;;;;;;6.10;2.17;;;11.30;96.70;;;;;;4944233;28;20028;-68
2021/05/11 06:53:37;;;;;;;4.32;1.35;;;11.20;96.50;;;;;;4938594;29;20035;-68
2021/05/11 06:56:04;;;;;;;9.98;1.77;;;11.20;96.50;;;;;;4943309;28;20039;-68
2021/05/11 06:58:29;;;;;;;6.00;1.90;;;11.20;96.60;;;;;;4944870;29;20055;-67
2021/05/11 07:00:55;;;;;;;7.05;1.92;;;11.20;96.60;;;;;;4938696;29;20031;-68
2021/05/11 07:03:20;;;;;;;6.13;1.70;;;11.20;96.60;;;;;;4946886;29;20407;-68
2021/05/11 07:05:49;;;;;;;5.18;1.88;;;11.20;96.50;;;;;;4949579;28;20090;-68
2021/05/11 07:10:55;;;;;;;4.85;1.75;;;11.20;96.50;;;;;;4947123;29;20031;-68
2021/05/11 07:13:21;;;;;;;5.25;1.58;;;11.30;96.50;;;;;;4946069;28;20417;-68
2021/05/11 07:15:47;;;;;;;6.75;1.67;;;11.30;96.60;;;;;;4942806;28;20028;-68
2021/05/11 07:18:17;;;;;;;5.30;1.80;;;11.30;96.50;;;;;;4951426;28;20063;-69
2021/05/11 07:20:45;;;;;;;5.37;1.93;;;11.30;96.60;;;;;;4946969;28;20062;-68
2021/05/11 07:23:16;;;;;;;3.33;1.85;;;11.30;96.60;;;;;;4945418;28;20298;-68
2021/05/11 07:25:51;;;;;;;;;;;11.30;96.70;;;;;;4951958;28;20031;-68
2021/05/11 07:31:03;;;;;;;8.68;2.05;;;11.30;96.70;;;;;;4952044;29;20051;-68
2021/05/11 07:33:39;;;;;;;9.63;1.92;;;11.30;96.70;;;;;;4948114;28;20155;-67
2021/05/11 07:36:05;;;;;;;3.95;1.75;;;11.40;96.70;;;;;;4949145;28;20031;-68
2021/05/11 08:28:41;;;;;;;5.43;1.95;;;12.00;96.20;;;;;;5093374;28;20414;-63
2021/05/11 08:31:07;;;;;;;5.53;2.00;;;12.10;96.10;;;;;;5078348;28;20017;-64
2021/05/11 08:33:34;;;;;;;7.30;1.90;;;12.40;96.20;;;;;;5064010;28;20021;-64
2021/05/11 08:36:00;;;;;;;5.65;2.17;;;12.60;95.90;;;;;;5082536;28;20032;-64
2021/05/11 08:51:29;;;;;;;7.32;1.52;;;12.90;95.20;;;;;;5081057;27;20461;-63
2021/05/11 09:27:11;;;;;;;3.92;1.35;;;13.90;91.80;;;;;;5069716;28;20039;-62
2021/05/11 09:45:02;;;;;;;4.00;1.40;;;13.80;91.60;;;;;;5075970;28;20024;-63
2021/05/11 09:57:06;;;;;;;4.53;1.13;;;15.30;88.10;;;;;;5062388;28;20391;-64
2021/05/11 10:46:57;;;;;;;3.42;0.82;;;17.00;81.10;;;;;;5055438;28;20051;-64
2021/05/11 10:49:28;;;;;;;1.95;0.60;;;17.30;79.50;;;;;;5051506;28;20029;-64
2021/05/11 10:52:27;;;;;;;3.50;0.90;;;17.30;78.30;;;;;;5049925;28;20036;-63
2021/05/11 10:55:11;;;;;;;2.63;0.80;;;17.60;77.60;;;;;;5055883;28;20399;-65
2021/05/11 10:57:54;;;;;;;4.35;1.00;;;17.60;80.00;;;;;;5049830;28;20029;-65
2021/05/11 11:03:17;;;;;;;3.58;0.82;;;16.70;76.10;;;;;;5053631;28;20068;-64
2021/05/11 11:05:43;;;;;;;1.73;0.70;;;16.80;78.10;;;;;;5051869;28;20021;-64
2021/05/11 11:08:44;;;;;;;2.45;1.10;;;16.50;77.90;;;;;;5052410;28;20024;-64
2021/05/11 11:11:20;;;;;;;5.60;1.25;;;16.50;78.50;;;;;;5049083;28;20034;-62
2021/05/11 11:13:51;;;;;;;2.58;0.98;;;16.50;78.70;;;;;;5051042;28;20032;-63
2021/05/11 11:16:17;;;;;;;5.55;1.02;;;16.50;79.30;;;;;;5047302;28;20021;-63
2021/05/11 11:18:47;;;;;;;2.75;1.05;;;16.40;78.50;;;;;;5051296;28;20021;-63
2021/05/11 11:21:34;;;;;;;2.92;1.00;;;16.30;79.40;;;;;;5061066;28;20638;-62
2021/05/11 11:24:00;;;;;;;4.82;0.90;;;16.20;78.80;;;;;;5055165;28;20064;-63
2021/05/11 11:26:33;;;;;;;5.95;1.15;;;15.80;79.00;;;;;;5055044;28;20087;-62
2021/05/11 11:29:01;;;;;;;2.88;1.02;;;15.60;80.40;;;;;;5052807;28;20025;-62
2021/05/11 11:31:29;;;;;;;2.85;1.00;;;15.40;79.70;;;;;;5053077;28;20029;-62
2021/05/11 11:34:13;;;;;;;2.70;1.05;;;15.30;82.90;;;;;;5054062;28;20036;-62
2021/05/11 11:36:39;;;;;;;5.05;0.90;;;15.40;82.30;;;;;;5049980;28;20240;-62
2021/05/11 11:39:15;;;;;;;5.30;1.27;;;15.40;82.80;;;;;;5051858;28;20515;-62
2021/05/11 11:41:41;;;;;;;3.38;1.20;;;15.50;82.80;;;;;;5053494;28;20115;-62
2021/05/11 11:44:07;;;;;;;2.97;1.25;;;15.50;82.30;;;;;;5062461;28;20048;-62
2021/05/11 11:46:33;;;;;;;3.63;1.08;;;15.50;82.10;;;;;;5048855;28;20468;-62
2021/05/11 11:49:08;;;;;;;2.42;0.70;;;15.80;81.80;;;;;;5055850;28;20028;-62
2021/05/11 11:51:35;;;;;;;3.83;0.95;;;15.90;81.30;;;;;;5044606;28;20033;-62
2021/05/11 11:54:20;;;;;;;2.28;0.70;;;16.10;81.90;;;;;;5053416;28;20032;-62
2021/05/11 11:59:30;;;;;;;2.58;1.00;;;16.30;79.20;;;;;;5046775;28;20036;-62
2021/05/11 12:02:01;;;;;;;2.03;0.68;;;16.30;81.20;;;;;;5017358;28;20025;-62
2021/05/11 12:04:27;;;;;;;4.25;1.05;;;16.10;79.70;;;;;;5044716;28;20099;-62
2021/05/11 12:06:54;;;;;;;3.00;1.00;;;16.00;81.30;;;;;;5048175;28;20409;-62
2021/05/11 12:09:22;;;;;;;4.93;1.25;;;15.60;81.50;;;;;;5055709;28;20085;-61
2021/05/11 12:11:48;;;;;;;5.47;1.30;;;15.60;81.90;;;;;;5048466;28;20094;-61
2021/05/11 12:14:15;;;;;;;4.18;1.02;;;15.50;80.00;;;;;;5052814;28;20090;-62
2021/05/11 12:16:48;;;;;;;3.47;1.15;;;15.60;81.10;;;;;;5053015;28;20049;-62
2021/05/11 12:19:22;;;;;;;2.95;0.90;;;15.50;80.70;;;;;;5052679;28;20028;-61
2021/05/11 12:21:55;;;;;;;1.60;0.68;;;15.60;81.30;;;;;;5053919;28;20062;-62
2021/05/11 12:24:34;;;;;;;2.58;0.90;;;15.90;81.40;;;;;;5045787;28;20507;-61
2021/05/11 12:27:20;;;;;;;2.78;0.85;;;16.00;79.40;;;;;;5052319;28;20031;-62
2021/05/11 12:30:08;;;;;;;5.43;1.02;;;16.20;81.20;;;;;;5048004;28;20396;-62
2021/05/11 12:32:35;;;;;;;2.45;0.70;;;16.00;79.00;;;;;;5047779;28;20115;-62
2021/05/11 12:35:05;;;;;;;1.92;0.95;;;16.10;79.00;;;;;;5051237;28;20514;-62
2021/05/11 12:38:12;;;;;;;4.03;0.95;;;16.30;79.90;;;;;;5049280;28;20029;-62
2021/05/11 12:40:44;;;;;;;4.90;1.00;;;16.30;80.10;;;;;;5050925;28;20041;-61
2021/05/11 12:43:10;;;;;;;1.75;0.80;;;16.20;78.60;;;;;;5049726;28;20025;-62
2021/05/11 12:45:52;;;;;;;3.92;1.10;;;16.50;78.40;;;;;;5049973;28;20476;-60
2021/05/11 12:48:18;;;;;;;3.25;0.73;;;16.80;79.00;;;;;;5054454;28;20036;-61
2021/05/11 12:50:45;;;;;;;3.05;0.90;;;16.60;75.60;;;;;;5051296;28;20102;-62
2021/05/11 12:53:38;;;;;;;4.82;1.00;;;16.70;75.70;;;;;;5052734;28;20032;-62
2021/05/11 12:58:42;;;;;;;3.38;0.80;;;16.50;75.90;;;;;;5054343;28;20021;-62
2021/05/11 13:20:44;;;;;;;2.90;1.17;;;16.10;77.50;;;;;;5047182;28;20051;-63
2021/05/11 13:23:19;;;;;;;3.53;1.02;;;16.20;78.70;;;;;;5055667;28;20036;-62
2021/05/11 13:26:08;;;;;;;2.15;0.80;;;16.20;76.80;;;;;;5055304;28;20767;-62
2021/05/11 13:29:17;;;;;;;4.53;1.10;;;16.40;79.00;;;;;;5058811;28;20040;-63
2021/05/11 13:31:26;;;;;;;3.65;0.90;;;16.40;77.30;;;;;;5047704;28;20397;-63
2021/05/11 13:34:08;;;;;;;2.70;0.82;;;16.30;78.20;;;;;;5056770;28;20662;-62
2021/05/11 13:36:35;;;;;;;3.22;0.80;;;16.30;77.20;;;;;;5057046;28;20780;-64
2021/05/11 13:39:01;;;;;;;3.50;1.08;;;16.50;77.10;;;;;;5060968;28;20020;-66
2021/05/11 13:41:27;;;;;;;4.07;1.10;;;16.60;77.40;;;;;;5053045;28;20013;-65
2021/05/11 13:43:53;;;;;;;2.42;1.00;;;16.50;74.90;;;;;;5051348;28;20027;-66
2021/05/11 13:46:18;;;;;;;2.15;0.85;;;16.50;75.90;;;;;;5060858;28;20102;-64
2021/05/11 13:48:47;;;;;;;2.92;0.75;;;16.40;77.00;;;;;;5057740;28;20033;-65
2021/05/11 13:51:18;;;;;;;2.45;0.85;;;16.30;77.10;;;;;;5059750;28;20052;-65
2021/05/11 13:53:48;;;;;;;1.52;0.80;;;16.30;77.90;;;;;;5057253;28;20032;-66
2021/05/11 13:57:02;;;;;;;4.50;0.98;;;16.10;76.90;;;;;;5061095;28;20024;-63
2021/05/11 14:04:17;;;;;;;1.85;1.00;;;16.20;76.90;;;;;;5055579;28;20017;-62
2021/05/11 14:06:43;;;;;;;3.03;0.80;;;16.20;75.90;;;;;;5054746;28;20599;-63
2021/05/11 14:09:10;;;;;;;2.40;0.90;;;16.20;77.10;;;;;;5058642;28;20052;-63
2021/05/11 14:11:36;;;;;;;2.33;0.82;;;16.20;77.30;;;;;;5052875;28;20641;-65
2021/05/11 14:14:03;;;;;;;4.65;0.98;;;16.10;74.00;;;;;;5053901;28;20029;-64
2021/05/11 14:16:29;;;;;;;2.05;0.90;;;16.00;74.50;;;;;;5057567;28;20024;-65
2021/05/11 14:18:55;;;;;;;1.88;0.85;;;16.00;75.60;;;;;;5058422;28;20024;-65
2021/05/11 14:21:21;;;;;;;2.95;0.82;;;15.90;75.80;;;;;;5058862;28;20021;-65
2021/05/11 14:23:47;;;;;;;3.35;1.20;;;15.70;74.00;;;;;;5055491;28;20035;-66
2021/05/11 14:26:12;;;;;;;3.42;0.98;;;15.90;75.70;;;;;;5051939;28;20040;-63
2021/05/11 14:28:38;;;;;;;3.38;0.73;;;15.70;76.40;;;;;;5058528;28;20770;-64
2021/05/11 14:31:04;;;;;;;3.67;0.90;;;15.90;77.60;;;;;;5060488;28;20578;-65
2021/05/11 14:33:30;;;;;;;6.28;1.00;;;16.10;76.80;;;;;;5058265;28;20024;-65
2021/05/11 14:35:56;;;;;;;2.50;0.82;;;16.50;78.30;;;;;;5056239;28;20051;-64
2021/05/11 14:38:21;;;;;;;2.80;0.82;;;16.60;75.20;;;;;;5054219;28;20024;-64
2021/05/11 14:40:47;;;;;;;3.25;1.10;;;16.70;73.60;;;;;;5057741;28;20174;-64
2021/05/11 14:43:13;;;;;;;2.55;0.90;;;16.70;75.40;;;;;;5050953;28;20063;-65
2021/05/11 14:45:39;;;;;;;4.03;1.08;;;16.60;74.50;;;;;;5057063;28;20017;-65
2021/05/11 14:48:05;;;;;;;4.93;0.73;;;16.60;75.00;;;;;;5055613;28;20061;-65
2021/05/11 14:50:32;;;;;;;4.55;1.00;;;16.70;74.60;;;;;;5056338;28;20032;-64
2021/05/11 14:52:59;;;;;;;3.72;1.02;;;16.60;76.50;;;;;;5061763;28;20032;-64
2021/05/11 14:55:25;;;;;;;3.45;1.00;;;16.60;73.70;;;;;;5057586;28;20446;-64
2021/05/11 14:57:55;;;;;;;2.55;0.68;;;16.70;76.00;;;;;;5053057;28;20028;-62
2021/05/11 15:00:23;;;;;;;3.78;1.05;;;16.70;74.90;;;;;;5054018;28;20039;-63
2021/05/11 15:02:48;;;;;;;2.53;1.05;;;16.60;75.10;;;;;;5054161;28;20033;-63
2021/05/11 15:05:14;;;;;;;2.50;1.10;;;16.30;74.80;;;;;;5058191;28;20059;-64
2021/05/11 15:07:40;;;;;;;5.80;1.00;;;16.30;75.10;;;;;;5052635;28;20028;-64
2021/05/11 15:10:07;;;;;;;2.90;0.75;;;16.20;76.70;;;;;;5058660;28;20135;-64
2021/05/11 15:12:33;;;;;;;1.77;0.85;;;16.00;74.50;;;;;;5053834;28;20554;-63
2021/05/11 15:14:59;;;;;;;4.78;1.10;;;15.70;76.50;;;;;;5050427;28;20035;-62
2021/05/11 15:19:56;;;;;;;2.63;0.90;;;15.70;75.60;;;;;;5056609;28;21326;-63
2021/05/11 15:22:22;;;;;;;4.43;0.93;;;15.70;75.20;;;;;;5053259;28;20052;-62
2021/05/11 15:24:49;;;;;;;1.77;1.00;;;15.60;76.60;;;;;;5058807;28;20041;-63
2021/05/11 15:27:16;;;;;;;2.38;0.80;;;15.70;75.30;;;;;;5057174;28;20111;-63
2021/05/11 15:29:42;;;;;;;1.88;0.90;;;15.60;75.90;;;;;;5059899;28;20274;-63
2021/05/11 15:32:40;;;;;;;5.00;1.23;;;15.70;77.20;;;;;;5053681;28;20487;-63
2021/05/11 15:35:11;;;;;;;2.90;0.82;;;15.90;77.50;;;;;;5061301;28;20396;-63
2021/05/11 15:37:38;;;;;;;3.05;0.98;;;16.00;76.50;;;;;;5053772;28;20729;-63
2021/05/11 15:40:06;;;;;;;7.70;1.40;;;15.90;75.10;;;;;;5059048;28;20037;-62
2021/05/11 15:42:32;;;;;;;4.72;0.90;;;15.80;75.50;;;;;;5053724;28;20060;-63
2021/05/11 15:44:58;;;;;;;4.40;1.10;;;15.80;76.30;;;;;;5052843;28;20084;-64
2021/05/11 15:47:24;;;;;;;4.47;1.30;;;15.70;76.50;;;;;;5050669;28;20063;-62
2021/05/11 15:49:49;;;;;;;5.05;1.20;;;15.60;78.80;;;;;;5057526;28;21194;-64
2021/05/11 15:52:15;;;;;;;4.22;0.98;;;15.60;78.90;;;;;;5052948;28;20043;-63
2021/05/11 15:54:40;;;;;;;5.63;0.93;;;15.50;78.40;;;;;;5057207;28;20079;-62
2021/05/11 15:57:07;;;;;;;4.65;1.20;;;15.50;78.70;;;;;;5052232;28;20033;-62
2021/05/11 15:59:33;;;;;;;5.15;1.30;;;15.40;77.90;;;;;;5054883;28;20034;-63
2021/05/11 16:01:59;;;;;;;6.20;1.27;;;15.40;79.60;;;;;;5047118;28;20017;-64
2021/05/11 16:04:25;;;;;;;6.68;1.15;;;15.30;79.90;;;;;;5060526;28;20090;-63
2021/05/11 16:06:51;;;;;;;7.57;1.33;;;15.10;79.30;;;;;;5056111;28;20435;-66
2021/05/11 16:09:16;;;;;;;4.05;1.70;;;15.10;79.90;;;;;;5054425;28;20025;-64
2021/05/11 16:11:42;;;;;;;5.03;1.65;;;15.10;79.80;;;;;;5057465;28;20104;-64
2021/05/11 16:14:08;;;;;;;5.88;1.23;;;15.10;80.00;;;;;;5058712;28;20032;-63
2021/05/11 16:16:34;;;;;;;3.97;1.27;;;15.00;80.80;;;;;;5053254;28;20052;-65
2021/05/11 16:19:00;;;;;;;4.13;1.38;;;15.00;81.20;;;;;;5056438;28;20028;-64
2021/05/11 16:21:25;;;;;;;5.70;1.50;;;15.00;83.00;;;;;;5053484;28;20043;-64
2021/05/11 16:23:56;;;;;;;6.68;1.48;;;15.00;84.20;;;;;;5054930;28;21781;-65
2021/05/11 16:26:25;;;;;;;5.15;1.70;;;14.90;84.50;;;;;;5047399;28;20263;-65
2021/05/11 16:28:53;;;;;;;4.20;1.35;;;14.60;83.40;;;;;;5058700;28;20511;-65
2021/05/11 16:31:20;;;;;;;3.85;1.60;;;14.60;85.80;;;;;;5049217;28;20078;-65
2021/05/11 16:33:46;;;;;;;5.88;1.30;;;14.60;85.30;;;;;;5057530;28;20025;-65
2021/05/11 16:36:12;;;;;;;5.68;1.73;;;14.50;85.60;;;;;;5051401;28;20020;-65
2021/05/11 16:38:38;;;;;;;3.35;1.52;;;14.40;86.10;;;;;;5050607;28;20078;-65
2021/05/11 16:41:04;;;;;;;6.15;1.40;;;14.40;84.00;;;;;;5048212;28;20029;-65
2021/05/11 16:43:30;;;;;;;4.28;1.50;;;14.20;83.60;;;;;;5055146;28;20393;-66
2021/05/11 16:46:03;;;;;;;4.32;1.45;;;14.10;84.50;;;;;;5048518;28;20039;-65
2021/05/11 16:48:30;;;;;;;4.30;1.40;;;14.10;85.30;;;;;;5058012;28;20037;-64
2021/05/11 16:50:56;;;;;;;5.50;1.45;;;14.10;86.50;;;;;;5055740;28;21905;-64
2021/05/11 16:53:22;;;;;;;3.72;1.30;;;14.10;86.90;;;;;;5056926;28;20031;-63
2021/05/11 16:55:47;;;;;;;6.75;1.85;;;14.00;85.60;;;;;;5051215;28;20471;-64
2021/05/11 16:58:13;;;;;;;5.32;1.70;;;14.10;87.10;;;;;;5058367;28;20048;-64
2021/05/11 17:00:40;;;;;;;8.50;2.15;;;14.10;87.60;;;;;;5054053;28;20029;-64
2021/05/11 17:03:06;;;;;;;4.90;1.83;;;14.00;87.90;;;;;;5053678;28;20036;-65
2021/05/11 17:05:32;;;;;;;4.07;1.67;;;14.00;88.60;;;;;;5055682;28;20484;-60
2021/05/11 17:07:58;;;;;;;6.50;1.88;;;14.00;88.50;;;;;;5057660;28;20029;-62
2021/05/11 17:10:27;;;;;;;2.40;1.50;;;13.90;89.30;;;;;;5062129;28;20511;-61
2021/05/11 17:12:54;;;;;;;6.65;2.08;;;13.80;89.70;;;;;;5052626;28;20033;-60
2021/05/11 17:15:19;;;;;;;5.32;2.08;;;13.70;88.60;;;;;;5059831;28;20026;-60
2021/05/11 17:17:46;;;;;;;5.28;1.95;;;13.70;89.10;;;;;;5059232;28;20107;-61
2021/05/11 17:20:14;;;;;;;5.03;1.95;;;13.70;90.10;;;;;;5062471;28;20051;-61
2021/05/11 17:22:39;;;;;;;7.82;2.20;;;13.70;90.60;;;;;;5058125;28;20620;-61
2021/05/11 17:25:07;;;;;;;5.82;1.95;;;13.60;90.80;;;;;;5062005;28;20034;-62
2021/05/11 17:27:33;;;;;;;7.85;2.08;;;13.60;91.20;;;;;;5056860;28;20055;-61